createdAt,value
2022-11-15T00:00:05.531Z,11.40
2022-11-15T00:02:33.223Z,12.13
2022-11-15T00:05:02.637Z,11.43
2022-11-15T00:07:54.157Z,14.00
2022-11-15T00:10:18.416Z,12.47
2022-11-15T00:12:45.967Z,12.37
2022-11-15T00:15:13.539Z,12.67
2022-11-15T00:17:41.063Z,11.47
2022-11-15T00:20:12.381Z,11.63
2022-11-15T00:22:40.100Z,11.23
2022-11-15T00:25:08.481Z,11.60
2022-11-15T00:27:36.035Z,11.67
2022-11-15T00:30:03.586Z,11.17
2022-11-15T00:32:33.063Z,10.00
2022-11-15T00:35:00.654Z,11.63
2022-11-15T00:37:29.617Z,10.50
2022-11-15T00:39:57.265Z,10.43
2022-11-15T00:42:24.993Z,9.80
2022-11-15T00:44:52.593Z,12.23
2022-11-15T00:47:20.354Z,9.57
2022-11-15T00:49:47.941Z,11.23
2022-11-15T00:52:15.534Z,9.63
2022-11-15T00:54:44.411Z,8.00
2022-11-15T00:57:12.311Z,8.33
2022-11-15T00:59:39.824Z,8.63
2022-11-15T01:02:07.384Z,11.57
2022-11-15T01:04:35.020Z,8.90
2022-11-15T01:07:02.577Z,8.80
2022-11-15T01:09:30.128Z,12.70
2022-11-15T01:11:59.021Z,15.97
2022-11-15T01:14:26.789Z,8.13
2022-11-15T01:16:54.347Z,8.83
2022-11-15T01:19:22.098Z,11.70
2022-11-15T01:21:50.875Z,9.30
2022-11-15T01:24:18.457Z,10.37
2022-11-15T01:26:46.031Z,9.93
2022-11-15T01:29:14.858Z,10.30
2022-11-15T01:31:42.368Z,13.67
2022-11-15T01:34:09.976Z,13.33
2022-11-15T01:36:37.602Z,9.83
2022-11-15T01:39:05.357Z,13.93
2022-11-15T01:41:34.607Z,10.40
2022-11-15T01:44:35.610Z,9.63
2022-11-15T01:47:07.845Z,9.00
2022-11-15T01:49:37.652Z,12.23
2022-11-15T01:52:07.638Z,9.60
2022-11-15T01:54:35.126Z,10.97
2022-11-15T01:57:04.984Z,9.80
2022-11-15T01:59:32.564Z,15.13
2022-11-15T02:02:00.119Z,12.60
2022-11-15T02:04:30.653Z,10.13
2022-11-15T02:06:58.302Z,10.77
2022-11-15T02:09:25.957Z,9.60
2022-11-15T02:11:53.905Z,10.00
2022-11-15T02:14:22.156Z,9.53
2022-11-15T02:16:56.452Z,10.97
2022-11-15T02:19:36.910Z,12.60
2022-11-15T02:22:13.207Z,9.87
2022-11-15T02:24:54.847Z,10.70
2022-11-15T02:27:36.608Z,9.13
2022-11-15T02:30:20.950Z,11.93
2022-11-15T02:32:51.977Z,9.30
2022-11-15T02:35:26.163Z,10.97
2022-11-15T02:37:57.221Z,9.70
2022-11-15T02:40:30.301Z,12.27
2022-11-15T02:43:17.312Z,9.73
2022-11-15T02:45:48.443Z,8.30
2022-11-15T02:48:16.251Z,14.77
2022-11-15T02:50:44.659Z,11.10
2022-11-15T02:53:12.231Z,9.50
2022-11-15T02:55:42.194Z,10.67
2022-11-15T02:58:45.876Z,13.40
2022-11-15T03:01:19.840Z,11.27
2022-11-15T03:03:57.313Z,9.73
2022-11-15T03:06:31.441Z,14.93
2022-11-15T03:09:05.889Z,12.17
2022-11-15T03:11:36.824Z,11.83
2022-11-15T03:14:10.525Z,11.83
2022-11-15T03:16:41.722Z,14.30
2022-11-15T03:19:15.567Z,8.93
2022-11-15T03:21:43.245Z,12.17
2022-11-15T03:24:11.052Z,10.83
2022-11-15T03:26:40.875Z,9.67
2022-11-15T03:29:11.142Z,9.30
2022-11-15T03:31:51.663Z,10.30
2022-11-15T03:34:24.597Z,11.20
2022-11-15T03:36:53.703Z,10.00
2022-11-15T03:39:22.228Z,9.30
2022-11-15T03:41:52.142Z,10.97
2022-11-15T03:44:24.487Z,11.93
2022-11-15T03:46:57.969Z,11.90
2022-11-15T03:49:29.852Z,8.70
2022-11-15T03:51:58.600Z,8.90
2022-11-15T03:54:26.220Z,9.80
2022-11-15T03:56:53.798Z,10.07
2022-11-15T03:59:21.419Z,10.80
2022-11-15T04:01:48.993Z,12.13
2022-11-15T04:04:17.908Z,8.87
2022-11-15T04:06:45.598Z,9.57
2022-11-15T04:09:13.263Z,9.97
2022-11-15T04:11:40.822Z,9.63
2022-11-15T04:14:08.355Z,7.90
2022-11-15T04:16:40.964Z,8.77
2022-11-15T04:19:28.758Z,12.97
2022-11-15T04:22:15.343Z,11.30
2022-11-15T04:24:42.844Z,12.43
2022-11-15T04:27:11.009Z,9.70
2022-11-15T04:29:38.508Z,9.37
2022-11-15T04:32:07.155Z,10.50
2022-11-15T04:34:35.231Z,13.87
2022-11-15T04:37:17.073Z,11.80
2022-11-15T04:39:45.221Z,10.10
2022-11-15T04:42:12.840Z,9.13
2022-11-15T04:44:40.521Z,13.17
2022-11-15T04:47:08.076Z,12.50
2022-11-15T04:49:35.654Z,9.63
2022-11-15T04:52:04.844Z,10.80
2022-11-15T04:54:32.616Z,11.67
2022-11-15T04:57:00.114Z,11.17
2022-11-15T04:59:27.690Z,11.37
2022-11-15T05:01:55.158Z,12.30
2022-11-15T05:04:21.754Z,11.73
2022-11-15T05:06:50.595Z,11.70
2022-11-15T05:09:19.825Z,11.67
2022-11-15T05:11:47.776Z,16.57
2022-11-15T05:14:15.480Z,11.00
2022-11-15T05:16:43.504Z,11.80
2022-11-15T05:19:10.989Z,11.90
2022-11-15T05:21:39.162Z,11.07
2022-11-15T05:24:07.603Z,12.20
2022-11-15T05:26:36.458Z,10.67
2022-11-15T05:29:04.295Z,11.83
2022-11-15T05:31:31.813Z,12.50
2022-11-15T05:34:07.004Z,10.47
2022-11-15T05:36:37.580Z,12.10
2022-11-15T05:39:06.013Z,11.93
2022-11-15T05:41:37.673Z,10.33
2022-11-15T05:44:08.325Z,8.50
2022-11-15T05:46:36.282Z,11.60
2022-11-15T05:49:03.905Z,11.77
2022-11-15T05:51:31.536Z,9.60
2022-11-15T05:54:00.286Z,9.67
2022-11-15T05:56:27.900Z,10.97
2022-11-15T05:58:59.726Z,12.23
2022-11-15T06:01:28.063Z,12.80
2022-11-15T06:03:55.624Z,10.07
2022-11-15T06:06:23.213Z,10.00
2022-11-15T06:08:50.726Z,11.60
2022-11-15T06:11:18.261Z,10.80
2022-11-15T06:13:45.797Z,9.90
2022-11-15T06:16:14.668Z,12.70
2022-11-15T06:18:42.155Z,9.10
2022-11-15T06:21:09.691Z,9.60
2022-11-15T06:23:37.424Z,8.23
2022-11-15T06:26:05.117Z,7.63
2022-11-15T06:28:33.334Z,7.50
2022-11-15T06:31:04.588Z,8.30
2022-11-15T06:33:33.816Z,9.77
2022-11-15T06:36:03.280Z,9.13
2022-11-15T06:38:30.798Z,6.93
2022-11-15T06:41:03.422Z,7.70
2022-11-15T06:43:31.261Z,9.03
2022-11-15T06:45:59.800Z,10.70
2022-11-15T06:48:27.331Z,9.67
2022-11-15T06:50:57.512Z,9.80
2022-11-15T06:53:25.453Z,7.23
2022-11-15T06:55:55.392Z,8.47
2022-11-15T06:58:23.601Z,8.00
2022-11-15T07:00:51.211Z,8.83
2022-11-15T07:03:19.068Z,6.03
2022-11-15T07:05:53.101Z,7.47
2022-11-15T07:08:21.966Z,9.30
2022-11-15T07:10:51.168Z,9.50
2022-11-15T07:13:18.732Z,9.03
2022-11-15T07:15:46.709Z,8.20
2022-11-15T07:18:14.432Z,8.83
2022-11-15T07:20:41.975Z,6.57
2022-11-15T07:23:09.556Z,8.80
2022-11-15T07:25:38.509Z,9.07
2022-11-15T07:28:06.411Z,16.80
2022-11-15T07:30:34.039Z,11.50
2022-11-15T07:33:02.686Z,10.20
2022-11-15T07:35:30.712Z,9.77
2022-11-15T07:37:59.154Z,11.97
2022-11-15T07:40:27.790Z,9.87
2022-11-15T07:43:01.046Z,10.80
2022-11-15T07:45:28.839Z,12.43
2022-11-15T07:47:58.760Z,9.20
2022-11-15T07:50:30.231Z,11.60
2022-11-15T07:52:58.199Z,9.20
2022-11-15T07:55:27.191Z,13.07
2022-11-15T07:58:02.426Z,9.63
2022-11-15T08:00:30.182Z,7.90
2022-11-15T08:03:03.756Z,22.43
2022-11-15T08:05:31.364Z,7.53
2022-11-15T08:07:59.036Z,8.20
2022-11-15T08:10:26.713Z,11.43
2022-11-15T08:13:06.382Z,8.03
2022-11-15T08:15:35.279Z,7.50
2022-11-15T08:18:05.297Z,6.33
2022-11-15T08:20:35.066Z,8.00
2022-11-15T08:23:04.736Z,9.93
2022-11-15T08:25:33.638Z,8.83
2022-11-15T08:28:03.644Z,20.43
2022-11-15T08:30:33.847Z,7.27
2022-11-15T08:33:03.536Z,6.97
2022-11-15T08:35:31.043Z,8.40
2022-11-15T08:38:00.850Z,9.00
2022-11-15T08:40:34.257Z,8.40
2022-11-15T08:43:05.464Z,8.13
2022-11-15T08:45:36.546Z,7.70
2022-11-15T08:48:04.547Z,8.83
2022-11-15T08:50:32.708Z,12.43
2022-11-15T08:53:06.448Z,10.03
2022-11-15T08:55:34.433Z,8.47
2022-11-15T08:58:02.456Z,7.20
2022-11-15T09:00:35.278Z,9.40
2022-11-15T09:03:12.603Z,9.30
2022-11-15T09:05:44.627Z,6.40
2022-11-15T09:08:40.878Z,7.40
2022-11-15T09:11:05.914Z,7.20
2022-11-15T09:13:35.823Z,8.53
2022-11-15T09:16:06.822Z,9.00
2022-11-15T09:18:40.028Z,8.13
2022-11-15T09:21:34.318Z,9.07
2022-11-15T09:24:03.717Z,9.13
2022-11-15T09:26:40.209Z,8.10
2022-11-15T09:29:11.605Z,10.60
2022-11-15T09:31:48.978Z,6.33
2022-11-15T09:34:37.788Z,7.03
2022-11-15T09:37:16.334Z,5.80
2022-11-15T09:39:46.200Z,10.70
2022-11-15T09:42:41.409Z,9.30
2022-11-15T09:45:36.215Z,7.87
2022-11-15T09:48:33.022Z,8.83
2022-11-15T09:51:06.061Z,8.77
2022-11-15T09:54:23.695Z,8.63
2022-11-15T09:56:36.736Z,6.83
2022-11-15T09:59:30.602Z,6.27
2022-11-15T10:02:06.479Z,9.73
2022-11-15T10:04:35.184Z,6.40
2022-11-15T10:07:10.368Z,5.77
2022-11-15T10:09:49.443Z,6.03
2022-11-15T10:12:20.317Z,5.53
2022-11-15T10:14:54.398Z,7.50
2022-11-15T10:17:52.482Z,7.20
2022-11-15T10:20:23.366Z,6.07
2022-11-15T10:22:55.074Z,5.70
2022-11-15T10:25:25.812Z,11.37
2022-11-15T10:27:58.942Z,6.00
2022-11-15T10:30:34.716Z,6.23
2022-11-15T10:33:17.573Z,5.70
2022-11-15T10:35:49.838Z,8.10
2022-11-15T10:38:19.232Z,5.70
2022-11-15T10:40:47.509Z,6.60
2022-11-15T10:43:18.489Z,5.27
2022-11-15T10:45:49.679Z,7.70
2022-11-15T10:48:27.705Z,5.20
2022-11-15T10:50:57.306Z,5.63
2022-11-15T10:53:34.941Z,6.50
2022-11-15T10:56:06.133Z,6.17
2022-11-15T10:58:42.277Z,6.30
2022-11-15T11:01:15.812Z,7.33
2022-11-15T11:03:49.581Z,7.00
2022-11-15T11:06:26.599Z,5.27
2022-11-15T11:09:31.328Z,4.83
2022-11-15T11:12:00.724Z,6.10
2022-11-15T11:15:10.406Z,7.50
2022-11-15T11:28:52.717Z,9.47
2022-11-15T11:31:54.286Z,5.87
2022-11-15T11:34:42.342Z,5.80
2022-11-15T11:37:16.864Z,5.50
2022-11-15T11:39:55.130Z,5.80
2022-11-15T11:42:42.204Z,5.53
2022-11-15T11:45:18.830Z,6.10
2022-11-15T11:47:49.941Z,5.27
2022-11-15T11:50:21.836Z,4.87
2022-11-15T11:53:04.017Z,7.60
2022-11-15T11:55:37.478Z,3.93
2022-11-15T11:58:35.610Z,5.77
2022-11-15T12:01:29.028Z,5.50
2022-11-15T12:04:34.704Z,5.70
2022-11-15T12:07:16.852Z,5.80
2022-11-15T12:10:02.936Z,4.00
2022-11-15T12:12:39.959Z,5.37
2022-11-15T12:15:17.564Z,4.17
2022-11-15T12:17:51.336Z,4.33
2022-11-15T12:20:21.438Z,4.73
2022-11-15T12:22:54.666Z,4.00
2022-11-15T12:25:25.564Z,4.27
2022-11-15T12:27:59.120Z,4.90
2022-11-15T12:30:57.485Z,3.67
2022-11-15T12:33:34.296Z,8.30
2022-11-15T12:36:05.018Z,5.13
2022-11-15T12:38:58.696Z,5.43
2022-11-15T12:41:30.144Z,4.27
2022-11-15T12:44:00.236Z,6.10
2022-11-15T12:47:05.626Z,4.43
2022-11-15T12:49:56.331Z,4.77
2022-11-15T12:53:10.040Z,6.27
2022-11-15T12:55:48.307Z,5.40
2022-11-15T12:58:52.491Z,3.90
2022-11-15T13:02:14.661Z,4.90
2022-11-15T13:04:49.049Z,5.33
2022-11-15T13:08:07.196Z,4.07
2022-11-15T13:10:36.305Z,4.87
2022-11-15T13:13:05.985Z,3.50
2022-11-15T13:15:45.879Z,7.80
2022-11-15T13:18:39.718Z,4.30
2022-11-15T13:21:38.923Z,3.23
2022-11-15T13:24:15.037Z,4.23
2022-11-15T13:26:48.992Z,4.57
2022-11-15T13:29:29.274Z,3.47
2022-11-15T13:32:09.353Z,3.17
2022-11-15T13:34:52.452Z,4.07
2022-11-15T13:37:38.443Z,3.07
2022-11-15T13:40:27.880Z,3.97
2022-11-15T13:42:58.816Z,3.23
2022-11-15T13:45:27.833Z,3.70
2022-11-15T13:48:07.315Z,3.07
2022-11-15T13:50:42.701Z,3.60
2022-11-15T13:53:13.754Z,4.00
2022-11-15T13:55:42.088Z,4.30
2022-11-15T13:58:24.265Z,3.30
2022-11-15T14:01:05.534Z,4.63
2022-11-15T14:07:24.155Z,3.60
2022-11-15T14:13:38.626Z,2.87
2022-11-15T14:17:02.054Z,4.50
2022-11-15T14:19:47.023Z,5.37
2022-11-15T14:22:30.234Z,1.90
2022-11-15T14:25:21.045Z,3.27
2022-11-15T14:28:20.745Z,2.00
2022-11-15T14:30:51.394Z,1.93
2022-11-15T14:33:24.848Z,2.77
2022-11-15T14:35:53.632Z,1.97
2022-11-15T14:38:21.885Z,2.77
2022-11-15T14:40:50.072Z,1.63
2022-11-15T14:43:17.865Z,2.33
2022-11-15T14:45:45.521Z,1.90
2022-11-15T14:48:14.515Z,3.87
2022-11-15T14:50:42.606Z,3.93
2022-11-15T14:53:14.184Z,1.70
2022-11-15T14:55:42.575Z,1.80
2022-11-15T14:58:10.815Z,2.00
2022-11-15T15:00:40.169Z,2.30
2022-11-15T15:03:11.412Z,2.00
2022-11-15T15:05:43.078Z,2.30
2022-11-15T15:08:11.778Z,2.00
2022-11-15T15:10:42.098Z,3.10
2022-11-15T15:13:18.304Z,2.43
2022-11-15T15:15:46.376Z,4.07
2022-11-15T15:18:14.276Z,3.87
2022-11-15T15:20:45.409Z,5.17
2022-11-15T15:23:18.510Z,3.57
2022-11-15T15:25:47.233Z,7.13
2022-11-15T15:28:15.148Z,5.00
2022-11-15T15:30:43.596Z,4.03
2022-11-15T15:33:11.410Z,4.50
2022-11-15T15:35:39.135Z,4.57
2022-11-15T15:38:08.531Z,5.13
2022-11-15T15:40:36.605Z,7.17
2022-11-15T15:43:04.656Z,4.63
2022-11-15T15:45:33.054Z,3.60
2022-11-15T15:48:00.891Z,4.63
2022-11-15T15:50:30.010Z,4.03
2022-11-15T15:52:59.365Z,3.93
2022-11-15T15:55:29.122Z,4.60
2022-11-15T15:57:57.134Z,7.37
2022-11-15T16:00:26.180Z,5.30
2022-11-15T16:02:54.525Z,6.93
2022-11-15T16:05:22.715Z,2.90
2022-11-15T16:07:50.856Z,5.10
2022-11-15T16:10:26.989Z,6.13
2022-11-15T16:12:57.785Z,8.53
2022-11-15T16:15:27.511Z,6.43
2022-11-15T16:17:56.735Z,6.63
2022-11-15T16:20:36.402Z,9.17
2022-11-15T16:23:08.958Z,10.23
2022-11-15T16:25:40.752Z,9.20
2022-11-15T16:28:17.206Z,5.73
2022-11-15T16:30:44.906Z,6.27
2022-11-15T16:33:12.496Z,5.97
2022-11-15T16:35:40.100Z,6.40
2022-11-15T16:38:09.314Z,9.57
2022-11-15T16:40:37.937Z,7.17
2022-11-15T16:43:06.618Z,8.47
2022-11-15T16:45:36.521Z,7.40
2022-11-15T16:48:05.160Z,13.57
2022-11-15T16:50:35.164Z,14.93
2022-11-15T16:53:02.948Z,12.70
2022-11-15T16:55:30.901Z,12.63
2022-11-15T16:57:59.335Z,15.90
2022-11-15T17:00:28.429Z,14.73
2022-11-15T17:02:57.842Z,15.40
2022-11-15T17:05:27.637Z,15.03
2022-11-15T17:07:55.218Z,15.13
2022-11-15T17:10:23.391Z,13.33
2022-11-15T17:12:51.353Z,16.53
2022-11-15T17:15:19.291Z,13.33
2022-11-15T17:17:52.256Z,20.07
2022-11-15T17:20:22.649Z,11.53
2022-11-15T17:22:50.136Z,12.40
2022-11-15T17:25:17.667Z,10.23
2022-11-15T17:27:45.250Z,12.63
2022-11-15T17:30:15.176Z,8.10
2022-11-15T17:32:42.801Z,11.73
2022-11-15T17:35:15.350Z,6.77
2022-11-15T17:37:45.286Z,6.67
2022-11-15T17:40:13.270Z,8.20
2022-11-15T17:42:42.556Z,8.83
2022-11-15T17:45:10.916Z,12.17
2022-11-15T17:47:38.846Z,8.10
2022-11-15T17:50:07.798Z,9.70
2022-11-15T17:52:35.362Z,9.70
2022-11-15T17:55:04.907Z,14.33
2022-11-15T17:57:32.435Z,12.27
2022-11-15T17:59:59.935Z,12.10
2022-11-15T18:02:28.050Z,13.87
2022-11-15T18:04:55.571Z,12.37
2022-11-15T18:07:23.325Z,10.83
2022-11-15T18:09:50.879Z,11.50
2022-11-15T18:12:19.729Z,11.27
2022-11-15T18:14:47.224Z,10.43
2022-11-15T18:17:14.718Z,8.57
2022-11-15T18:19:42.275Z,8.27
2022-11-15T18:22:10.191Z,12.23
2022-11-15T18:24:38.370Z,12.63
2022-11-15T18:27:07.197Z,9.30
2022-11-15T18:29:37.785Z,8.00
2022-11-15T18:32:11.248Z,7.47
2022-11-15T18:34:38.978Z,8.60
2022-11-15T18:37:06.496Z,8.40
2022-11-15T18:39:34.112Z,10.70
2022-11-15T18:42:02.164Z,6.70
2022-11-15T18:44:30.599Z,9.07
2022-11-15T18:46:59.974Z,11.97
2022-11-15T18:49:27.906Z,8.90
2022-11-15T18:51:58.308Z,11.20
2022-11-15T18:54:31.003Z,10.40
2022-11-15T18:57:01.682Z,10.90
2022-11-15T18:59:30.190Z,9.40
2022-11-15T19:01:57.876Z,9.63
2022-11-15T19:04:28.732Z,10.63
2022-11-15T19:06:56.582Z,9.17
2022-11-15T19:09:27.329Z,11.77
2022-11-15T19:11:54.952Z,9.00
2022-11-15T19:14:24.427Z,9.40
2022-11-15T19:16:57.262Z,9.20
2022-11-15T19:19:28.431Z,10.47
2022-11-15T19:21:57.509Z,7.77
2022-11-15T19:24:26.321Z,10.60
2022-11-15T19:26:54.904Z,8.90
2022-11-15T19:29:22.588Z,9.57
2022-11-15T19:31:51.430Z,9.13
2022-11-15T19:34:23.213Z,8.30
2022-11-15T19:36:52.365Z,7.87
2022-11-15T19:39:22.541Z,10.77
2022-11-15T19:41:53.828Z,8.87
2022-11-15T19:44:23.646Z,13.50
2022-11-15T19:46:51.507Z,10.30
2022-11-15T19:49:19.694Z,10.40
2022-11-15T19:51:49.737Z,7.13
2022-11-15T19:54:24.269Z,7.23
2022-11-15T19:57:07.759Z,10.37
2022-11-15T19:59:40.576Z,8.23
2022-11-15T20:02:19.758Z,9.63
2022-11-15T20:04:48.751Z,8.93
2022-11-15T20:07:16.615Z,10.80
2022-11-15T20:09:47.084Z,11.63
2022-11-15T20:12:14.933Z,13.90
2022-11-15T20:14:45.901Z,9.30
2022-11-15T20:17:13.888Z,8.37
2022-11-15T20:19:41.560Z,6.40
2022-11-15T20:22:14.427Z,11.43
2022-11-15T20:24:42.112Z,10.40
2022-11-15T20:27:11.354Z,11.43
2022-11-15T20:29:43.881Z,11.57
2022-11-15T20:32:12.888Z,15.83
2022-11-15T20:34:40.706Z,16.83
2022-11-15T20:37:08.459Z,14.37
2022-11-15T20:39:36.037Z,11.37
2022-11-15T20:42:05.358Z,14.57
2022-11-15T20:44:36.071Z,13.03
2022-11-15T20:47:04.416Z,8.37
2022-11-15T20:49:32.170Z,9.90
2022-11-15T20:51:59.897Z,9.67
2022-11-15T20:54:27.738Z,8.80
2022-11-15T20:56:56.418Z,13.60
2022-11-15T20:59:25.436Z,7.83
2022-11-15T21:01:54.657Z,12.80
2022-11-15T21:04:22.717Z,19.50
2022-11-15T21:06:50.753Z,12.03
2022-11-15T21:09:37.580Z,14.53
2022-11-15T21:12:19.661Z,20.33
2022-11-15T21:14:49.008Z,18.87
2022-11-15T21:17:22.183Z,19.50
2022-11-15T21:19:50.890Z,19.33
2022-11-15T21:22:29.859Z,12.43
2022-11-15T21:25:00.876Z,14.43
2022-11-15T21:27:32.375Z,12.50
2022-11-15T21:30:37.128Z,9.37
2022-11-15T21:33:08.060Z,6.20
2022-11-15T21:35:58.090Z,10.10
2022-11-15T21:38:25.944Z,9.80
2022-11-15T21:40:56.703Z,7.07
2022-11-15T21:43:28.328Z,11.33
2022-11-15T21:46:00.162Z,10.07
2022-11-15T21:48:40.371Z,12.17
2022-11-15T21:51:13.716Z,9.20
2022-11-15T21:53:54.759Z,7.80
2022-11-15T21:56:37.147Z,9.27
2022-11-15T21:59:04.868Z,8.60
2022-11-15T22:01:51.655Z,8.37
2022-11-15T22:04:34.459Z,11.93
2022-11-15T22:07:03.390Z,7.53
2022-11-15T22:09:34.135Z,11.40
2022-11-15T22:15:02.289Z,8.60
2022-11-15T22:18:11.800Z,8.47
2022-11-15T22:20:51.342Z,10.97
2022-11-15T22:23:19.052Z,9.20
2022-11-15T22:25:46.709Z,8.37
2022-11-15T22:31:07.166Z,7.70
2022-11-15T22:33:38.884Z,7.30
2022-11-15T22:39:35.819Z,9.60
2022-11-15T22:42:06.855Z,8.63
2022-11-15T22:44:36.923Z,5.93
2022-11-15T22:47:19.580Z,7.40
2022-11-15T22:50:04.333Z,10.67
2022-11-15T22:52:33.660Z,8.60
2022-11-15T22:56:08.389Z,6.20
2022-11-15T22:57:57.471Z,8.30
2022-11-15T23:01:10.158Z,5.67
2022-11-15T23:05:20.362Z,6.87
2022-11-15T23:12:06.741Z,5.67
2022-11-15T23:15:42.081Z,6.10
2022-11-15T23:18:07.565Z,6.77
2022-11-15T23:20:43.428Z,6.90
2022-11-15T23:27:20.813Z,9.70
2022-11-15T23:30:06.047Z,10.27
2022-11-15T23:32:51.428Z,5.73
2022-11-15T23:35:21.239Z,8.80
2022-11-15T23:37:49.145Z,6.33
2022-11-15T23:40:17.104Z,6.67
2022-11-15T23:42:46.069Z,6.13
2022-11-15T23:45:13.795Z,10.13
2022-11-15T23:47:41.418Z,8.47
2022-11-15T23:50:09.591Z,8.80
2022-11-15T23:52:37.159Z,6.57
2022-11-15T23:55:05.876Z,8.40
2022-11-15T23:57:33.540Z,7.43
